Lemolo, Washington
Current Conditions -  °F | °C
As of 2:35 AM on Sunday 21 Dec 2014 (Local Time) from KPWT Reporting Station
Clear Clear  
Wind Chill: 43°   Ceiling: Unl
Heat Index: 48°   Visibility: 10mi
Dew Point: 46°   Wind: 12mph
Humidity: 93%   Direction: 190°S
Pressure: 29.72"   Gusts: NA
Location:  47.7571°N, 122.623°W
Report Text: KPWT 211035Z AUTO 19010KT 10SM CLR 09/08 A2972 RMK AO1
Loading
Personal Weather Stations






























Interactive Weather Map New forecast layout! Learn more

10-Day Weather Forecast

Advertisements
Track Severe Weather on mobile